Time;durP1;ratioP1;P1;durP2;ratioP2;P2;SDS_P1;SDS_P2;PMS_P1;PMS_P2;Temp;Humidity;BMP_temperature;BMP_pressure;BME280_temperature;BME280_humidity;BME280_pressure;Samples;Min_cycle;Max_cycle;Signal;HPM_P1;HPM_P2
2021/08/05 00:02:27;;;;;;;1999.90;999.90;;;;;;;14.49;52.42;100731.66;5032055;27;97888;-73
2021/08/05 00:04:55;;;;;;;1999.90;999.90;;;;;;;14.42;52.35;100720.06;5014992;27;97818;-72
2021/08/05 00:07:23;;;;;;;1999.90;999.90;;;;;;;14.41;52.64;100725.41;5019779;27;97824;-73
2021/08/05 00:09:51;;;;;;;1999.90;999.90;;;;;;;14.39;52.57;100722.69;5020998;27;97982;-73
2021/08/05 00:12:19;;;;;;;1999.90;999.90;;;;;;;14.38;52.52;100728.03;5020745;27;99386;-72
2021/08/05 00:14:48;;;;;;;1999.90;999.90;;;;;;;14.40;52.30;100723.59;5014324;27;99235;-73
2021/08/05 00:17:16;;;;;;;1999.90;999.90;;;;;;;14.38;52.44;100733.41;5020137;27;97679;-72
2021/08/05 00:19:43;;;;;;;1999.90;999.90;;;;;;;14.36;52.38;100720.00;5021977;27;97705;-72
2021/08/05 00:22:11;;;;;;;1999.90;999.90;;;;;;;14.33;52.69;100713.75;5016042;27;98692;-73
2021/08/05 00:24:39;;;;;;;1999.90;999.90;;;;;;;14.32;52.68;100714.63;5022243;27;97654;-72
2021/08/05 00:27:08;;;;;;;1999.90;999.90;;;;;;;14.30;52.42;100709.25;5013447;27;96847;-72
2021/08/05 00:29:35;;;;;;;1999.90;999.90;;;;;;;14.28;52.47;100713.72;4986579;28;97846;-72
2021/08/05 00:32:05;;;;;;;1999.90;999.90;;;;;;;14.26;52.50;100712.84;4996828;28;99429;-73
2021/08/05 00:34:33;;;;;;;1999.90;999.90;;;;;;;14.27;52.57;100711.03;5034816;27;98995;-72
2021/08/05 00:37:01;;;;;;;1999.90;999.90;;;;;;;14.23;52.64;100717.25;5002008;28;96920;-72
2021/08/05 00:39:29;;;;;;;1999.90;999.90;;;;;;;14.19;52.69;100718.16;5002704;27;97266;-73
2021/08/05 00:41:57;;;;;;;1999.90;999.90;;;;;;;14.15;52.52;100710.09;5016152;27;100018;-73
2021/08/05 00:44:25;;;;;;;1999.90;999.90;;;;;;;14.13;52.57;100705.63;5018132;27;98786;-73
2021/08/05 00:46:53;;;;;;;1999.90;999.90;;;;;;;14.09;52.63;100704.72;5017871;27;97750;-72
2021/08/05 00:49:23;;;;;;;1999.90;999.90;;;;;;;14.08;52.61;100702.91;5019403;27;96808;-73
2021/08/05 00:51:51;;;;;;;1999.90;999.90;;;;;;;14.05;52.75;100702.91;5018468;27;97803;-73
2021/08/05 00:54:19;;;;;;;1999.90;999.90;;;;;;;14.04;52.79;100695.75;5020398;28;98179;-72
2021/08/05 00:56:47;;;;;;;1999.90;999.90;;;;;;;14.03;52.78;100693.97;5021777;27;97917;-73
2021/08/05 00:59:15;;;;;;;1999.90;999.90;;;;;;;14.01;52.89;100698.41;5016710;27;97844;-73
2021/08/05 01:01:46;;;;;;;1999.90;999.90;;;;;;;13.99;52.79;100694.84;5012949;27;97960;-72
2021/08/05 01:04:15;;;;;;;1999.90;999.90;;;;;;;13.96;52.90;100697.50;4999418;27;99246;-72
2021/08/05 01:06:48;;;;;;;1999.90;999.90;;;;;;;13.89;52.96;100689.44;5016700;27;97072;-72
2021/08/05 01:09:23;;;;;;;1999.90;999.90;;;;;;;13.88;53.00;100701.91;5003018;27;97982;-72
2021/08/05 01:11:55;;;;;;;1999.90;999.90;;;;;;;13.87;52.93;100693.88;5034724;27;97924;-73
2021/08/05 01:14:25;;;;;;;1999.90;999.90;;;;;;;13.85;53.10;100698.31;5017293;27;98072;-73
2021/08/05 01:16:53;;;;;;;1999.90;999.90;;;;;;;13.85;53.12;100691.19;5002713;27;97289;-73
2021/08/05 01:19:27;;;;;;;1999.90;999.90;;;;;;;13.87;53.08;100685.84;5019382;27;97694;-73
2021/08/05 01:22:01;;;;;;;1999.90;999.90;;;;;;;13.86;53.03;100682.25;5032094;27;99558;-73
2021/08/05 01:24:32;;;;;;;1999.90;999.90;;;;;;;13.87;52.99;100685.84;5036106;27;96937;-73
2021/08/05 01:27:03;;;;;;;1999.90;999.90;;;;;;;13.87;53.11;100676.06;4994067;28;97663;-73
2021/08/05 01:29:34;;;;;;;1999.90;999.90;;;;;;;13.87;52.95;100676.06;5037180;27;96842;-73
2021/08/05 01:32:03;;;;;;;1999.90;999.90;;;;;;;13.86;53.30;100686.75;5015096;27;97742;-73
2021/08/05 01:34:33;;;;;;;1999.90;999.90;;;;;;;13.84;53.06;100676.00;5002567;27;99205;-73
2021/08/05 01:37:01;;;;;;;1999.90;999.90;;;;;;;13.86;53.11;100681.41;4999232;28;97211;-73
2021/08/05 01:39:30;;;;;;;1999.90;999.90;;;;;;;13.85;53.04;100679.59;5003370;27;97317;-73
2021/08/05 01:41:58;;;;;;;1999.90;999.90;;;;;;;13.84;53.01;100678.69;5016197;27;101035;-73
2021/08/05 01:44:28;;;;;;;1999.90;999.90;;;;;;;13.82;53.04;100677.78;5018876;27;99626;-72
2021/08/05 01:46:56;;;;;;;1999.90;999.90;;;;;;;13.81;53.29;100681.34;5036463;27;96837;-73
2021/08/05 01:49:24;;;;;;;1999.90;999.90;;;;;;;13.81;53.03;100678.69;5019376;27;96906;-73
2021/08/05 01:51:53;;;;;;;1999.90;999.90;;;;;;;13.78;52.98;100675.97;5018879;27;99266;-73
2021/08/05 01:54:21;;;;;;;1999.90;999.90;;;;;;;13.76;52.98;100671.47;5018961;27;96957;-72
2021/08/05 01:56:49;;;;;;;1999.90;999.90;;;;;;;13.74;53.26;100674.16;5037136;27;97100;-72
2021/08/05 01:59:16;;;;;;;1999.90;999.90;;;;;;;14.08;53.28;100673.47;5013030;27;98033;-73
2021/08/05 02:01:46;;;;;;;1999.90;999.90;;;;;;;13.85;53.62;100676.91;4991161;27;100460;-73
2021/08/05 02:04:22;;;;;;;1999.90;999.90;;;;;;;13.78;53.66;100675.06;5020991;27;97577;-73
2021/08/05 02:06:55;;;;;;;1999.90;999.90;;;;;;;13.73;53.67;100668.78;5014372;27;97323;-71
2021/08/05 02:09:27;;;;;;;1999.90;999.90;;;;;;;13.70;53.71;100666.97;5033029;27;97123;-71
2021/08/05 02:11:56;;;;;;;1999.90;999.90;;;;;;;13.69;53.64;100665.22;5010938;27;99938;-73
2021/08/05 02:14:25;;;;;;;1999.90;999.90;;;;;;;13.66;53.68;100672.31;5016125;27;97812;-73
2021/08/05 02:16:54;;;;;;;1999.90;999.90;;;;;;;13.64;53.73;100671.41;5018072;27;97511;-73
2021/08/05 02:19:25;;;;;;;1999.90;999.90;;;;;;;13.58;53.79;100674.94;5001256;27;99282;-73
2021/08/05 02:21:53;;;;;;;1999.90;999.90;;;;;;;13.93;53.77;100675.19;5000932;28;98915;-73
2021/08/05 02:24:22;;;;;;;1999.90;999.90;;;;;;;13.73;54.14;100672.34;5016581;27;98965;-73
2021/08/05 02:26:50;;;;;;;1999.90;999.90;;;;;;;13.67;54.26;100671.41;5014589;27;98214;-72
2021/08/05 02:29:19;;;;;;;1999.90;999.90;;;;;;;13.64;54.23;100663.38;5016779;27;97502;-73
2021/08/05 02:31:47;;;;;;;1999.90;999.90;;;;;;;13.62;54.24;100666.03;4997685;28;98760;-72
2021/08/05 02:34:16;;;;;;;1999.90;999.90;;;;;;;13.59;54.16;100663.34;5014419;27;98095;-72
2021/08/05 02:36:44;;;;;;;1999.90;999.90;;;;;;;13.58;54.15;100672.25;5018654;27;97021;-71
2021/08/05 02:39:12;;;;;;;1999.90;999.90;;;;;;;13.56;54.29;100668.69;4998396;27;97315;-73
2021/08/05 02:41:40;;;;;;;1999.90;999.90;;;;;;;13.58;54.32;100671.34;4997814;28;99446;-73
2021/08/05 02:44:08;;;;;;;1999.90;999.90;;;;;;;13.56;54.13;100671.34;4996787;28;99260;-72
2021/08/05 02:46:37;;;;;;;1999.90;999.90;;;;;;;13.55;54.08;100666.00;4996735;27;97236;-71
2021/08/05 02:49:04;;;;;;;1999.90;999.90;;;;;;;13.55;54.12;100666.00;5016392;27;97425;-73
2021/08/05 02:51:34;;;;;;;1999.90;999.90;;;;;;;13.53;53.93;100673.97;5016792;27;99944;-71
2021/08/05 02:54:02;;;;;;;1999.90;999.90;;;;;;;13.54;54.12;100664.19;5018533;27;97258;-73
2021/08/05 02:56:30;;;;;;;1999.90;999.90;;;;;;;13.52;54.17;100666.84;5013611;27;96873;-73
2021/08/05 02:58:58;;;;;;;1999.90;999.90;;;;;;;13.51;54.06;100662.41;5030697;27;97002;-73
2021/08/05 03:01:25;;;;;;;1999.90;999.90;;;;;;;13.51;54.10;100665.09;5009497;27;101081;-71
2021/08/05 03:03:54;;;;;;;1999.90;999.90;;;;;;;13.50;54.04;100662.38;5002469;28;99404;-73
2021/08/05 03:06:23;;;;;;;1999.90;999.90;;;;;;;13.48;54.07;100659.69;5030784;27;97306;-73
2021/08/05 03:08:52;;;;;;;1999.90;999.90;;;;;;;13.50;54.00;100657.03;5016776;27;97310;-72
2021/08/05 03:11:21;;;;;;;1999.90;999.90;;;;;;;13.50;53.91;100657.94;5012875;27;98230;-72
2021/08/05 03:13:48;;;;;;;1999.90;999.90;;;;;;;13.50;53.94;100657.03;5014598;27;99217;-72
2021/08/05 03:16:17;;;;;;;1999.90;999.90;;;;;;;13.49;54.09;100660.59;5012418;27;97772;-73
2021/08/05 03:18:44;;;;;;;1999.90;999.90;;;;;;;13.49;53.89;100656.16;5013131;27;97028;-73
2021/08/05 03:21:12;;;;;;;1999.90;999.90;;;;;;;13.49;54.08;100656.16;5017396;27;98963;-72
2021/08/05 03:23:40;;;;;;;1999.90;999.90;;;;;;;13.48;54.05;100657.03;5018241;27;98835;-72
2021/08/05 03:26:09;;;;;;;1999.90;999.90;;;;;;;13.47;53.85;100665.94;4998171;28;97844;-73
2021/08/05 03:28:37;;;;;;;1999.90;999.90;;;;;;;13.47;53.96;100662.34;5013599;27;97022;-72
2021/08/05 03:31:04;;;;;;;1999.90;999.90;;;;;;;13.45;54.16;100661.44;5015836;27;99438;-73
2021/08/05 03:33:32;;;;;;;1999.90;999.90;;;;;;;13.78;53.87;100654.56;5011836;27;97988;-73
2021/08/05 03:36:00;;;;;;;1999.90;999.90;;;;;;;13.57;54.29;100658.88;4999278;28;97708;-73
2021/08/05 03:38:27;;;;;;;1999.90;999.90;;;;;;;13.51;54.24;100665.09;5015751;27;97536;-73
2021/08/05 03:40:55;;;;;;;1999.90;999.90;;;;;;;13.49;54.14;100656.16;5012873;27;99319;-72
2021/08/05 03:43:25;;;;;;;1999.90;999.90;;;;;;;13.45;54.24;100654.34;5010885;27;98782;-73
2021/08/05 03:45:53;;;;;;;1999.90;999.90;;;;;;;13.43;54.17;100652.53;5016137;27;98885;-73
2021/08/05 03:48:21;;;;;;;1999.90;999.90;;;;;;;13.41;54.28;100652.50;5016604;27;97447;-73
2021/08/05 03:50:48;;;;;;;1999.90;999.90;;;;;;;13.41;54.11;100656.97;5015678;27;100172;-73
2021/08/05 03:53:16;;;;;;;1999.90;999.90;;;;;;;13.39;54.15;100648.94;5032451;27;97916;-73
2021/08/05 03:55:44;;;;;;;1999.90;999.90;;;;;;;13.39;54.06;100651.59;5018160;27;97147;-73
2021/08/05 03:58:12;;;;;;;1999.90;999.90;;;;;;;13.73;53.62;100655.41;5013705;27;97392;-73
2021/08/05 04:00:41;;;;;;;1999.90;999.90;;;;;;;13.52;54.02;100650.81;5009848;27;98443;-73
2021/08/05 04:03:09;;;;;;;1999.90;999.90;;;;;;;13.48;53.89;100653.44;5017340;27;99288;-73
2021/08/05 04:05:36;;;;;;;1999.90;999.90;;;;;;;13.45;54.10;100651.66;5012917;27;97602;-73
2021/08/05 04:08:05;;;;;;;1999.90;999.90;;;;;;;13.43;54.02;100648.06;5014588;27;97110;-73
2021/08/05 04:10:32;;;;;;;1999.90;999.90;;;;;;;13.40;53.90;100645.41;5015192;27;97156;-73
2021/08/05 04:13:00;;;;;;;1999.90;999.90;;;;;;;13.39;54.04;100654.28;5013882;27;98483;-73
2021/08/05 04:15:28;;;;;;;1999.90;999.90;;;;;;;13.37;53.99;100650.69;5015159;27;97193;-73
2021/08/05 04:17:57;;;;;;;1999.90;999.90;;;;;;;13.36;54.03;100654.25;5016972;27;97890;-73
2021/08/05 04:20:25;;;;;;;1999.90;999.90;;;;;;;13.35;54.16;100649.78;5017924;27;97608;-73
2021/08/05 04:22:53;;;;;;;1999.90;999.90;;;;;;;13.34;54.02;100647.09;5008230;27;97584;-73
2021/08/05 04:25:20;;;;;;;1999.90;999.90;;;;;;;13.34;54.10;100640.00;5031073;27;98130;-72
2021/08/05 04:27:48;;;;;;;1999.90;999.90;;;;;;;13.31;54.17;100639.06;5013401;27;97640;-73
2021/08/05 04:30:16;;;;;;;1999.90;999.90;;;;;;;13.31;54.08;100642.66;5015100;27;100207;-73
2021/08/05 04:32:44;;;;;;;1999.90;999.90;;;;;;;13.32;54.11;100630.16;5015691;27;98936;-72
2021/08/05 04:35:13;;;;;;;1999.90;999.90;;;;;;;13.32;53.89;100644.44;5012848;27;97131;-71
2021/08/05 04:37:49;;;;;;;1999.90;999.90;;;;;;;13.29;54.15;100632.81;5016299;27;96787;-73
2021/08/05 04:40:17;;;;;;;1999.90;999.90;;;;;;;13.29;54.10;100632.81;5016804;27;98018;-73
2021/08/05 04:42:44;;;;;;;1999.90;999.90;;;;;;;13.28;54.08;100633.69;5010449;27;97680;-73
2021/08/05 04:45:12;;;;;;;1999.90;999.90;;;;;;;13.28;53.94;100633.69;5016079;27;97154;-72
2021/08/05 04:47:54;;;;;;;1999.90;999.90;;;;;;;13.31;54.05;100637.31;5014116;27;97315;-73
2021/08/05 04:50:24;;;;;;;1999.90;999.90;;;;;;;13.66;54.07;100634.88;4998986;27;100074;-73
2021/08/05 04:52:53;;;;;;;1999.90;999.90;;;;;;;13.85;53.52;100639.47;5017386;27;98416;-73
2021/08/05 04:55:21;;;;;;;1999.90;999.90;;;;;;;13.58;53.94;100639.28;5020195;27;98101;-73
2021/08/05 04:57:50;;;;;;;1999.90;999.90;;;;;;;13.52;54.14;100639.22;5020303;27;98116;-73
2021/08/05 05:00:23;;;;;;;1999.90;999.90;;;;;;;13.83;53.39;100650.16;5029906;27;98464;-73
2021/08/05 05:02:51;;;;;;;1999.90;999.90;;;;;;;13.60;53.91;100646.44;5016705;27;99070;-72
2021/08/05 05:05:20;;;;;;;1999.90;999.90;;;;;;;13.91;53.19;100645.75;5019503;27;97815;-73
2021/08/05 05:07:49;;;;;;;1999.90;999.90;;;;;;;13.67;53.55;100640.22;5021185;27;97449;-73
2021/08/05 05:10:18;;;;;;;1999.90;999.90;;;;;;;13.54;53.89;100637.44;5017413;27;97903;-73
2021/08/05 05:12:46;;;;;;;1999.90;999.90;;;;;;;13.49;54.00;100633.84;5021934;27;97639;-72
2021/08/05 05:15:15;;;;;;;1999.90;999.90;;;;;;;13.46;54.10;100637.41;5020508;27;97427;-71
2021/08/05 05:17:44;;;;;;;1999.90;999.90;;;;;;;13.43;54.08;100633.81;5019345;27;97802;-72
2021/08/05 05:20:13;;;;;;;1999.90;999.90;;;;;;;13.42;54.06;100640.06;5014589;27;97729;-72
2021/08/05 05:22:41;;;;;;;1999.90;999.90;;;;;;;13.38;54.05;100639.13;5022142;27;99233;-73
2021/08/05 05:25:11;;;;;;;1999.90;999.90;;;;;;;13.36;54.03;100638.22;5018106;27;97244;-73
2021/08/05 05:27:39;;;;;;;1999.90;999.90;;;;;;;13.32;54.15;100625.72;5020335;27;97552;-73
2021/08/05 05:30:08;;;;;;;1999.90;999.90;;;;;;;13.32;53.98;100636.41;5016548;27;97793;-73
2021/08/05 05:32:37;;;;;;;1999.90;999.90;;;;;;;13.32;54.01;100631.06;5020069;27;99845;-73
2021/08/05 05:35:06;;;;;;;1999.90;999.90;;;;;;;13.33;53.91;100630.16;5014236;27;98066;-73
2021/08/05 05:37:34;;;;;;;1999.90;999.90;;;;;;;13.32;53.91;100628.38;5018004;27;97892;-72
2021/08/05 05:40:02;;;;;;;1999.90;999.90;;;;;;;13.32;53.95;100631.06;5018314;27;100566;-73
2021/08/05 05:42:33;;;;;;;1999.90;999.90;;;;;;;13.33;53.84;100623.94;5014744;27;99081;-73
2021/08/05 05:45:01;;;;;;;1999.90;999.90;;;;;;;13.33;53.78;100623.94;5020167;27;97431;-73
2021/08/05 05:47:30;;;;;;;1999.90;999.90;;;;;;;13.30;53.80;100622.13;5017503;27;97254;-72
2021/08/05 05:49:58;;;;;;;1999.90;999.90;;;;;;;13.31;53.87;100617.69;5019810;27;97729;-73
2021/08/05 05:52:25;;;;;;;1999.90;999.90;;;;;;;13.33;53.71;100621.28;5018777;27;99164;-73
2021/08/05 05:54:53;;;;;;;1999.90;999.90;;;;;;;13.70;53.21;100621.50;5034868;27;97375;-72
2021/08/05 05:57:21;;;;;;;1999.90;999.90;;;;;;;13.51;53.48;100622.31;5020088;27;97784;-73
2021/08/05 05:59:50;;;;;;;1999.90;999.90;;;;;;;13.50;53.45;100619.59;5009352;27;98155;-73
2021/08/05 06:02:18;;;;;;;1999.90;999.90;;;;;;;13.49;53.54;100626.75;5002039;27;99407;-73
2021/08/05 06:04:46;;;;;;;1999.90;999.90;;;;;;;13.50;53.45;100630.28;5013675;27;97972;-73
2021/08/05 06:07:13;;;;;;;1999.90;999.90;;;;;;;13.52;53.43;100633.88;5018851;27;97532;-73
2021/08/05 06:09:41;;;;;;;1999.90;999.90;;;;;;;13.50;53.49;100625.84;5014244;27;99298;-73
2021/08/05 06:12:09;;;;;;;1999.90;999.90;;;;;;;13.49;53.57;100626.75;5019621;27;101395;-73
2021/08/05 06:14:36;;;;;;;1999.90;999.90;;;;;;;13.50;53.45;100631.19;5018509;27;97047;-72
2021/08/05 06:17:06;;;;;;;1999.90;999.90;;;;;;;13.52;53.46;100632.09;5018751;27;97951;-73
2021/08/05 06:19:34;;;;;;;1999.90;999.90;;;;;;;13.53;53.32;100636.56;5017402;27;101279;-72
2021/08/05 06:22:02;;;;;;;1999.90;999.90;;;;;;;13.53;53.32;100633.88;5020475;27;97903;-73
2021/08/05 06:24:30;;;;;;;1999.90;999.90;;;;;;;13.53;53.36;100633.88;5036456;27;97496;-72
2021/08/05 06:26:57;;;;;;;1999.90;999.90;;;;;;;13.51;53.25;100645.47;5017704;27;97220;-73
2021/08/05 06:29:29;;;;;;;1999.90;999.90;;;;;;;13.52;53.22;100641.88;5019489;27;100771;-73
2021/08/05 06:31:57;;;;;;;1999.90;999.90;;;;;;;13.53;53.37;100636.56;4996793;28;99418;-73
2021/08/05 06:34:26;;;;;;;1999.90;999.90;;;;;;;13.50;53.63;100643.66;5019442;27;97251;-73
2021/08/05 06:36:54;;;;;;;1999.90;999.90;;;;;;;13.47;53.56;100647.22;5032771;27;98158;-72
2021/08/05 06:39:22;;;;;;;1999.90;999.90;;;;;;;13.49;53.46;100644.56;5000560;27;101305;-73
2021/08/05 06:41:50;;;;;;;1999.90;999.90;;;;;;;13.51;53.43;100643.69;5015126;27;99127;-73
2021/08/05 06:44:17;;;;;;;1999.90;999.90;;;;;;;13.53;53.37;100639.22;4998343;27;97252;-73
2021/08/05 06:46:45;;;;;;;1999.90;999.90;;;;;;;13.58;53.26;100644.63;5015517;27;96885;-74
2021/08/05 06:49:13;;;;;;;1999.90;999.90;;;;;;;13.61;53.27;100640.19;5034650;27;99633;-73
2021/08/05 06:51:42;;;;;;;1999.90;999.90;;;;;;;13.66;53.14;100637.56;5017791;27;99682;-73
2021/08/05 06:54:10;;;;;;;1999.90;999.90;;;;;;;13.70;53.22;100644.69;5018164;27;98004;-73
2021/08/05 06:56:41;;;;;;;1999.90;999.90;;;;;;;13.70;52.95;100645.59;5019031;27;97072;-72
2021/08/05 06:59:10;;;;;;;1999.90;999.90;;;;;;;13.76;53.01;100645.63;5011728;27;99843;-73
2021/08/05 07:01:37;;;;;;;1999.90;999.90;;;;;;;13.72;53.20;100641.16;5012614;27;97927;-72
2021/08/05 07:04:06;;;;;;;1999.90;999.90;;;;;;;13.77;52.97;100646.53;5016989;27;97313;-73
2021/08/05 07:06:33;;;;;;;1999.90;999.90;;;;;;;13.80;52.93;100638.56;5013907;27;96938;-73
2021/08/05 07:09:02;;;;;;;1999.90;999.90;;;;;;;13.84;53.13;100643.91;5012432;27;100920;-73
2021/08/05 07:11:30;;;;;;;1999.90;999.90;;;;;;;13.86;52.95;100642.13;5013269;27;99870;-72
2021/08/05 07:13:58;;;;;;;1999.90;999.90;;;;;;;13.90;52.85;100635.94;5016381;27;98234;-73
2021/08/05 07:16:26;;;;;;;1999.90;999.90;;;;;;;13.93;52.88;100641.28;5000308;27;96935;-71
2021/08/05 07:18:54;;;;;;;1999.90;999.90;;;;;;;13.98;52.55;100642.22;5017375;27;99397;-72
2021/08/05 07:21:22;;;;;;;1999.90;999.90;;;;;;;14.03;52.59;100637.78;5019310;27;97898;-73
2021/08/05 07:23:49;;;;;;;1999.90;999.90;;;;;;;14.07;52.74;100636.00;5019975;27;96747;-72
2021/08/05 07:26:19;;;;;;;1999.90;999.90;;;;;;;14.14;52.66;100637.81;5015476;27;98293;-72
2021/08/05 07:28:46;;;;;;;1999.90;999.90;;;;;;;14.15;52.43;100640.50;5012381;27;99342;-73
2021/08/05 07:31:14;;;;;;;1999.90;999.90;;;;;;;14.19;52.54;100630.69;5001849;27;100014;-72
2021/08/05 07:33:43;;;;;;;1999.90;999.90;;;;;;;14.24;52.23;100641.44;5012068;27;96881;-73
2021/08/05 07:36:11;;;;;;;1999.90;999.90;;;;;;;14.29;52.50;100639.66;5017298;27;97729;-72
2021/08/05 07:38:39;;;;;;;1999.90;999.90;;;;;;;14.33;52.37;100638.81;5013381;27;100706;-73
2021/08/05 07:41:07;;;;;;;1999.90;999.90;;;;;;;14.38;52.38;100637.03;5013535;27;100661;-71
2021/08/05 07:43:36;;;;;;;1999.90;999.90;;;;;;;14.40;52.07;100632.56;5016423;27;97089;-73
2021/08/05 07:46:04;;;;;;;1999.90;999.90;;;;;;;14.40;52.18;100628.13;5016381;27;97444;-73
2021/08/05 07:48:32;;;;;;;1999.90;999.90;;;;;;;14.45;52.11;100633.47;5033320;27;97634;-73
2021/08/05 07:51:00;;;;;;;1999.90;999.90;;;;;;;14.50;52.12;100631.72;5032175;27;99107;-73
2021/08/05 07:53:27;;;;;;;1999.90;999.90;;;;;;;14.50;52.02;100626.38;5017789;27;97267;-72
2021/08/05 07:55:55;;;;;;;1999.90;999.90;;;;;;;14.54;51.90;100629.03;5018515;27;97280;-73
2021/08/05 07:58:23;;;;;;;1999.90;999.90;;;;;;;14.57;51.67;100622.84;5011554;27;98821;-73
2021/08/05 08:00:52;;;;;;;1999.90;999.90;;;;;;;14.60;51.66;100625.53;5012519;27;100681;-73
2021/08/05 08:03:20;;;;;;;1999.90;999.90;;;;;;;14.61;51.80;100627.31;5013381;27;97453;-73
2021/08/05 08:05:48;;;;;;;1999.90;999.90;;;;;;;14.58;51.76;100624.63;5014633;27;97308;-73
2021/08/05 08:08:17;;;;;;;1999.90;999.90;;;;;;;14.61;51.73;100625.50;5016851;27;99420;-73
2021/08/05 08:10:45;;;;;;;1999.90;999.90;;;;;;;14.63;51.84;100626.41;5014551;27;99597;-73
2021/08/05 08:13:26;;;;;;;1999.90;999.90;;;;;;;14.66;51.85;100623.72;5017290;27;96816;-73
2021/08/05 08:15:55;;;;;;;1999.90;999.90;;;;;;;14.71;51.83;100615.72;5018435;27;96791;-73
2021/08/05 08:18:23;;;;;;;1999.90;999.90;;;;;;;14.76;51.28;100625.56;5033453;27;98884;-72
2021/08/05 08:20:54;;;;;;;1999.90;999.90;;;;;;;14.79;51.64;100619.31;5030999;27;98972;-72
2021/08/05 08:23:22;;;;;;;1999.90;999.90;;;;;;;14.80;51.53;100613.97;5017302;27;97753;-72
2021/08/05 08:25:50;;;;;;;1999.90;999.90;;;;;;;14.87;51.04;100606.81;5031007;27;97836;-73
2021/08/05 08:28:18;;;;;;;1999.90;999.90;;;;;;;14.90;51.30;100614.88;5012880;27;100326;-73
2021/08/05 08:30:45;;;;;;;1999.90;999.90;;;;;;;14.91;51.44;100617.53;5035331;27;98194;-73
2021/08/05 08:33:15;;;;;;;1999.90;999.90;;;;;;;14.95;51.33;100613.06;5019329;27;96928;-73
2021/08/05 08:35:42;;;;;;;1999.90;999.90;;;;;;;14.98;51.14;100613.06;5021188;27;97223;-73
2021/08/05 08:38:10;;;;;;;1999.90;999.90;;;;;;;15.02;51.14;100604.16;5018426;27;99985;-73
2021/08/05 08:40:38;;;;;;;1999.90;999.90;;;;;;;15.02;51.10;100601.47;5019904;27;99083;-73
2021/08/05 08:43:06;;;;;;;1999.90;999.90;;;;;;;15.04;51.38;100610.41;5016093;27;97652;-73
2021/08/05 08:45:35;;;;;;;1999.90;999.90;;;;;;;15.08;51.40;100606.84;5018763;27;97551;-72
2021/08/05 08:48:05;;;;;;;1999.90;999.90;;;;;;;15.11;50.97;100604.13;5015044;27;99687;-73
2021/08/05 08:50:34;;;;;;;1999.90;999.90;;;;;;;15.13;51.20;100599.69;5021552;27;97562;-74
2021/08/05 08:53:06;;;;;;;1999.90;999.90;;;;;;;15.14;51.33;100596.09;5019119;27;97236;-73
2021/08/05 08:55:36;;;;;;;1999.90;999.90;;;;;;;15.21;51.18;100597.00;5020319;27;97988;-73
2021/08/05 08:58:05;;;;;;;1999.90;999.90;;;;;;;15.25;51.09;100602.34;5017390;27;100095;-71
2021/08/05 09:00:36;;;;;;;1999.90;999.90;;;;;;;15.31;50.60;100599.69;5019987;27;99753;-72
2021/08/05 09:03:06;;;;;;;1999.90;999.90;;;;;;;15.37;50.96;100599.69;5018617;27;97772;-73
2021/08/05 09:05:36;;;;;;;1999.90;999.90;;;;;;;15.42;50.47;100597.91;5018501;27;97197;-72
2021/08/05 09:08:04;;;;;;;1999.90;999.90;;;;;;;15.49;50.51;100588.94;5017823;27;99436;-73
2021/08/05 09:10:33;;;;;;;1999.90;999.90;;;;;;;15.54;50.05;100597.00;5018859;27;98084;-73
2021/08/05 09:13:03;;;;;;;1999.90;999.90;;;;;;;15.55;50.36;100594.31;5017009;27;97313;-73
2021/08/05 09:15:35;;;;;;;1999.90;999.90;;;;;;;15.58;50.35;100588.91;5018950;27;98089;-72
2021/08/05 09:18:04;;;;;;;1999.90;999.90;;;;;;;15.62;50.16;100579.97;5018368;27;98017;-73
2021/08/05 09:20:32;;;;;;;1999.90;999.90;;;;;;;15.62;49.98;100579.97;5020439;27;101175;-73
2021/08/05 09:23:01;;;;;;;1999.90;999.90;;;;;;;15.66;50.30;100584.44;5021210;27;97012;-72
2021/08/05 09:25:33;;;;;;;1999.90;999.90;;;;;;;15.70;50.21;100583.50;5018679;27;98058;-73
2021/08/05 09:28:13;;;;;;;1999.90;999.90;;;;;;;15.72;49.57;100578.16;5020322;27;100214;-72
2021/08/05 09:30:42;;;;;;;1999.90;999.90;;;;;;;15.79;49.74;100583.50;5019607;27;97555;-73
2021/08/05 09:33:12;;;;;;;1999.90;999.90;;;;;;;15.83;49.51;100577.19;5016351;27;97051;-73
2021/08/05 09:35:41;;;;;;;1999.90;999.90;;;;;;;15.88;49.34;100575.41;5017113;27;97031;-72
2021/08/05 09:38:20;;;;;;;1999.90;999.90;;;;;;;15.91;49.14;100572.72;5019142;27;97873;-73
2021/08/05 09:40:52;;;;;;;1999.90;999.90;;;;;;;15.97;48.98;100571.78;5017684;27;99097;-72
2021/08/05 09:43:24;;;;;;;1999.90;999.90;;;;;;;15.98;49.36;100571.78;5003512;27;97095;-73
2021/08/05 09:45:52;;;;;;;1999.90;999.90;;;;;;;16.00;49.14;100571.78;5016609;27;97673;-73
2021/08/05 09:48:37;;;;;;;1999.90;999.90;;;;;;;15.95;47.98;100562.84;4999955;27;99292;-72
2021/08/05 09:51:06;;;;;;;1999.90;999.90;;;;;;;15.95;49.27;100553.03;5002025;28;98193;-72
2021/08/05 09:53:36;;;;;;;1999.90;999.90;;;;;;;15.97;49.19;100553.91;5020422;27;96724;-73
2021/08/05 09:56:11;;;;;;;1999.90;999.90;;;;;;;16.00;48.87;100556.59;5019592;27;97568;-73
2021/08/05 09:58:39;;;;;;;1999.90;999.90;;;;;;;16.03;48.99;100547.66;5032067;27;97972;-73
2021/08/05 10:01:17;;;;;;;1999.90;999.90;;;;;;;16.08;48.66;100545.84;5031031;27;98032;-73
2021/08/05 10:03:45;;;;;;;1999.90;999.90;;;;;;;16.10;48.89;100536.84;5019918;27;96979;-73
2021/08/05 10:06:13;;;;;;;1999.90;999.90;;;;;;;16.16;48.65;100545.81;5012797;27;97539;-74
2021/08/05 10:08:43;;;;;;;1999.90;999.90;;;;;;;16.19;48.60;100545.78;5019309;27;98684;-73
2021/08/05 10:11:11;;;;;;;1999.90;999.90;;;;;;;16.22;48.49;100543.97;5014648;27;97906;-72
2021/08/05 10:13:40;;;;;;;1999.90;999.90;;;;;;;16.24;48.50;100536.78;5015376;27;97355;-74
2021/08/05 10:16:10;;;;;;;1999.90;999.90;;;;;;;16.29;48.21;100532.28;5017691;27;97934;-73
2021/08/05 10:18:39;;;;;;;1999.90;999.90;;;;;;;16.30;48.47;100543.91;5017460;27;98479;-73
2021/08/05 10:21:09;;;;;;;1999.90;999.90;;;;;;;16.31;47.83;100538.53;5017979;27;100186;-73
2021/08/05 10:23:38;;;;;;;1999.90;999.90;;;;;;;16.32;48.02;100531.38;5020574;27;97998;-73
2021/08/05 10:26:09;;;;;;;1999.90;999.90;;;;;;;16.33;47.81;100530.47;5016759;27;97017;-73
2021/08/05 10:28:38;;;;;;;1999.90;999.90;;;;;;;16.35;48.13;100529.56;5011072;27;97622;-72
2021/08/05 10:31:10;;;;;;;1999.90;999.90;;;;;;;16.37;47.94;100526.84;5032681;27;97967;-74
2021/08/05 10:33:41;;;;;;;1999.90;999.90;;;;;;;16.37;48.14;100518.81;5012682;27;97068;-73
2021/08/05 10:36:11;;;;;;;1999.90;999.90;;;;;;;16.37;48.28;100518.81;5019564;27;98151;-73
2021/08/05 10:38:41;;;;;;;1999.90;999.90;;;;;;;16.38;47.78;100507.19;5016404;27;100972;-73
2021/08/05 10:41:10;;;;;;;1999.90;999.90;;;;;;;16.37;48.34;100502.69;5017731;27;97983;-73
2021/08/05 10:43:38;;;;;;;1999.90;999.90;;;;;;;16.37;48.20;100505.38;5016778;27;96954;-74
2021/08/05 10:46:05;;;;;;;1999.90;999.90;;;;;;;16.39;48.31;100506.25;5011166;27;97390;-71
2021/08/05 10:48:34;;;;;;;1999.90;999.90;;;;;;;16.39;48.29;100500.88;5018945;27;99661;-73
2021/08/05 10:51:02;;;;;;;1999.90;999.90;;;;;;;16.39;47.94;100499.09;5013305;27;100773;-73
2021/08/05 10:53:46;;;;;;;1999.90;999.90;;;;;;;16.39;48.04;100498.19;5012534;27;97202;-73
2021/08/05 10:56:21;;;;;;;1999.90;999.90;;;;;;;16.40;47.93;100495.50;5014463;27;97719;-73